This is the latest recevied weather packets stored in our database for station/object KY4EF. If no packets are shown the sender has not sent any weather packets the latest 1 day(s).
| Time | Temp. | Humidity | Pressure | Rain* | Wind** | Luminosity | Snow |
|---|---|---|---|---|---|---|---|
| 1778037190 | 16.67° C | 62% | 1012.4 hPa | 0 mm | 0 m/s | 0 W/m² | - |
| 1778036897 | 16.67° C | 65% | 1012.5 hPa | 0 mm | 0 m/s | 0 W/m² | - |
| 1778036585 | 16.67° C | 66% | 1012.6 hPa | 0 mm | 0 m/s | 0 W/m² | - |
| 1778036282 | 16.67° C | 63% | 1012.6 hPa | 0 mm | 0 m/s | 0 W/m² | - |
| 1778035978 | 16.67° C | 63% | 1012.6 hPa | 0 mm | 0.45 m/s, 341° | 0 W/m² | - |
| 1778035675 | 16.67° C | 65% | 1012.7 hPa | 0 mm | 0.45 m/s, 189° | 0 W/m² | - |
| 1778035372 | 16.67° C | 65% | 1012.6 hPa | 0 mm | 0 m/s | 0 W/m² | - |
| 1778035068 | 16.67° C | 63% | 1012.5 hPa | 0 mm | 0.89 m/s, 149° | 0 W/m² | - |
| 1778034766 | 16.67° C | 65% | 1012.7 hPa | 0 mm | 0.45 m/s, 296° | 0 W/m² | - |
| 1778034462 | 16.67° C | 59% | 1012.6 hPa | 0 mm | 0.89 m/s, 22° | 0 W/m² | - |
| 1778034160 | 16.67° C | 62% | 1012.6 hPa | 0 mm | 0 m/s | 0 W/m² | - |
| 1778033858 | 16.67° C | 63% | 1012.6 hPa | 0 mm | 0 m/s | 0 W/m² | - |
| 1778033554 | 17.22° C | 62% | 1012.7 hPa | 0 mm | 0 m/s | 0 W/m² | - |
| 1778033251 | 17.22° C | 60% | 1012.3 hPa | 0 mm | 0.45 m/s, 186° | 0 W/m² | - |
| 1778032949 | 17.22° C | 60% | 1012.6 hPa | 0 mm | 0.45 m/s, 183° | 0 W/m² | - |
| 1778032646 | 17.22° C | 57% | 1012.3 hPa | 0 mm | 0 m/s | 0 W/m² | - |
| 1778032344 | 17.22° C | 60% | 1012.3 hPa | 0 mm | 0 m/s | 0 W/m² | - |
| 1778032041 | 17.22° C | 56% | 1011.9 hPa | 0 mm | 0.45 m/s, 184° | 0 W/m² | - |
| 1778031737 | 17.78° C | 55% | 1012 hPa | 0 mm | 0 m/s | 0 W/m² | - |
| 1778031434 | 17.78° C | 55% | 1011.8 hPa | 0 mm | 0.45 m/s, 141° | 0 W/m² | - |
| 1778031132 | 17.78° C | 55% | 1011.9 hPa | 0 mm | 0.45 m/s, 144° | 0 W/m² | - |
| 1778030827 | 17.78° C | 56% | 1011.9 hPa | 0 mm | 0 m/s | 0 W/m² | - |
| 1778030525 | 18.33° C | 52% | 1011.9 hPa | 0 mm | 0 m/s | 0 W/m² | - |
| 1778030222 | 18.33° C | 55% | 1012.2 hPa | 0 mm | 0 m/s | 0 W/m² | - |
| 1778029918 | 18.89° C | 52% | 1012 hPa | 0 mm | 0 m/s | 0 W/m² | - |
* Rain latest hour (hover to see other rain measurements)
** Current wind speed in m/s (hover to see current wind gust speed)